sensor_id;sensor_type;location;lat;lon;timestamp;pressure;altitude;pressure_sealevel;temperature
55077;BMP280;40971;44.702;11.030;2023-01-30T00:05:59;102342.47;;;-0.35
55077;BMP280;40971;44.702;11.030;2023-01-30T00:16:00;102320.09;;;-0.14
55077;BMP280;40971;44.702;11.030;2023-01-30T00:26:00;102315.94;;;-0.81
55077;BMP280;40971;44.702;11.030;2023-01-30T00:36:01;102308.00;;;-0.62
55077;BMP280;40971;44.702;11.030;2023-01-30T00:46:07;102308.91;;;-0.59
55077;BMP280;40971;44.702;11.030;2023-01-30T00:56:43;102290.72;;;-0.78
55077;BMP280;40971;44.702;11.030;2023-01-30T01:06:44;102293.28;;;-0.76
55077;BMP280;40971;44.702;11.030;2023-01-30T01:16:44;102285.91;;;-0.66
55077;BMP280;40971;44.702;11.030;2023-01-30T01:26:45;102285.06;;;-1.00
55077;BMP280;40971;44.702;11.030;2023-01-30T01:36:48;102266.75;;;-0.90
55077;BMP280;40971;44.702;11.030;2023-01-30T01:46:57;102257.44;;;-0.91
55077;BMP280;40971;44.702;11.030;2023-01-30T01:57:00;102243.63;;;-1.02
55077;BMP280;40971;44.702;11.030;2023-01-30T02:07:02;102239.44;;;-1.02
55077;BMP280;40971;44.702;11.030;2023-01-30T02:17:02;102230.53;;;-0.86
55077;BMP280;40971;44.702;11.030;2023-01-30T02:48:00;102196.91;;;-1.15
55077;BMP280;40971;44.702;11.030;2023-01-30T02:58:02;102189.50;;;-1.41
55077;BMP280;40971;44.702;11.030;2023-01-30T03:18:40;102170.19;;;-1.37
55077;BMP280;40971;44.702;11.030;2023-01-30T03:28:41;102157.31;;;-1.46
55077;BMP280;40971;44.702;11.030;2023-01-30T03:38:43;102171.72;;;-1.09
55077;BMP280;40971;44.702;11.030;2023-01-30T03:48:43;102156.13;;;-1.27
55077;BMP280;40971;44.702;11.030;2023-01-30T03:58:44;102160.53;;;-1.52
55077;BMP280;40971;44.702;11.030;2023-01-30T04:08:52;102148.03;;;-1.11
55077;BMP280;40971;44.702;11.030;2023-01-30T04:18:53;102132.59;;;-1.56
55077;BMP280;40971;44.702;11.030;2023-01-30T04:28:53;102130.56;;;-1.69
55077;BMP280;40971;44.702;11.030;2023-01-30T04:38:54;102121.81;;;-1.82
55077;BMP280;40971;44.702;11.030;2023-01-30T04:48:55;102117.03;;;-1.71
55077;BMP280;40971;44.702;11.030;2023-01-30T04:58:55;102101.50;;;-2.17
55077;BMP280;40971;44.702;11.030;2023-01-30T05:08:56;102089.59;;;-2.21
55077;BMP280;40971;44.702;11.030;2023-01-30T05:18:57;102052.69;;;-1.81
55077;BMP280;40971;44.702;11.030;2023-01-30T05:28:57;102036.19;;;-1.99
55077;BMP280;40971;44.702;11.030;2023-01-30T05:38:58;102036.66;;;-1.81
55077;BMP280;40971;44.702;11.030;2023-01-30T05:48:58;102058.50;;;-1.85
55077;BMP280;40971;44.702;11.030;2023-01-30T05:59:00;102071.13;;;-1.51
55077;BMP280;40971;44.702;11.030;2023-01-30T06:09:00;102080.06;;;-1.66
55077;BMP280;40971;44.702;11.030;2023-01-30T06:19:01;102105.00;;;-2.12
55077;BMP280;40971;44.702;11.030;2023-01-30T06:29:01;102114.00;;;-1.57
55077;BMP280;40971;44.702;11.030;2023-01-30T06:39:02;102142.88;;;-2.13
55077;BMP280;40971;44.702;11.030;2023-01-30T06:49:03;102145.66;;;-2.04
55077;BMP280;40971;44.702;11.030;2023-01-30T06:59:03;102140.00;;;-1.64
55077;BMP280;40971;44.702;11.030;2023-01-30T07:09:04;102135.59;;;-1.37
55077;BMP280;40971;44.702;11.030;2023-01-30T07:19:04;102143.84;;;-1.10
55077;BMP280;40971;44.702;11.030;2023-01-30T07:29:05;102126.41;;;-0.59
55077;BMP280;40971;44.702;11.030;2023-01-30T07:39:05;102103.69;;;0.36
55077;BMP280;40971;44.702;11.030;2023-01-30T07:49:08;102118.22;;;0.99
55077;BMP280;40971;44.702;11.030;2023-01-30T07:59:12;102114.06;;;1.67
55077;BMP280;40971;44.702;11.030;2023-01-30T08:09:12;102090.16;;;2.36
55077;BMP280;40971;44.702;11.030;2023-01-30T08:19:13;102077.00;;;2.92
55077;BMP280;40971;44.702;11.030;2023-01-30T08:29:13;102062.09;;;3.98
55077;BMP280;40971;44.702;11.030;2023-01-30T08:39:14;102041.47;;;5.26
55077;BMP280;40971;44.702;11.030;2023-01-30T08:49:14;102020.72;;;5.82
55077;BMP280;40971;44.702;11.030;2023-01-30T08:59:15;102009.94;;;6.48
55077;BMP280;40971;44.702;11.030;2023-01-30T09:09:15;101985.69;;;5.90
55077;BMP280;40971;44.702;11.030;2023-01-30T09:19:16;101979.63;;;6.00
55077;BMP280;40971;44.702;11.030;2023-01-30T09:29:16;101957.56;;;5.80
55077;BMP280;40971;44.702;11.030;2023-01-30T09:39:16;101944.97;;;5.49
55077;BMP280;40971;44.702;11.030;2023-01-30T09:59:31;101951.25;;;4.85
55077;BMP280;40971;44.702;11.030;2023-01-30T10:09:42;101936.75;;;4.93
55077;BMP280;40971;44.702;11.030;2023-01-30T10:29:59;101924.53;;;5.44
55077;BMP280;40971;44.702;11.030;2023-01-30T10:50:12;101879.72;;;6.00
55077;BMP280;40971;44.702;11.030;2023-01-30T11:00:27;101861.63;;;6.15
55077;BMP280;40971;44.702;11.030;2023-01-30T11:10:29;101849.41;;;6.41
55077;BMP280;40971;44.702;11.030;2023-01-30T11:20:38;101817.03;;;6.30
55077;BMP280;40971;44.702;11.030;2023-01-30T11:30:40;101773.47;;;6.30
55077;BMP280;40971;44.702;11.030;2023-01-30T11:40:41;101764.75;;;6.44
55077;BMP280;40971;44.702;11.030;2023-01-30T11:50:42;101742.84;;;6.81
55077;BMP280;40971;44.702;11.030;2023-01-30T12:00:46;101751.16;;;6.97
55077;BMP280;40971;44.702;11.030;2023-01-30T12:10:50;101702.31;;;7.52
55077;BMP280;40971;44.702;11.030;2023-01-30T12:21:25;101674.69;;;8.05
55077;BMP280;40971;44.702;11.030;2023-01-30T13:23:09;101552.00;;;10.02
55077;BMP280;40971;44.702;11.030;2023-01-30T13:33:15;101529.75;;;10.51
55077;BMP280;40971;44.702;11.030;2023-01-30T14:03:50;101488.16;;;11.08
55077;BMP280;40971;44.702;11.030;2023-01-30T14:13:51;101491.66;;;10.59
55077;BMP280;40971;44.702;11.030;2023-01-30T14:23:58;101482.44;;;10.52
55077;BMP280;40971;44.702;11.030;2023-01-30T14:33:59;101462.22;;;10.88
55077;BMP280;40971;44.702;11.030;2023-01-30T14:44:00;101452.69;;;10.42
55077;BMP280;40971;44.702;11.030;2023-01-30T15:04:12;101417.25;;;10.47
55077;BMP280;40971;44.702;11.030;2023-01-30T15:14:21;101414.09;;;9.89
55077;BMP280;40971;44.702;11.030;2023-01-30T15:34:57;101431.53;;;9.53
55077;BMP280;40971;44.702;11.030;2023-01-30T15:45:11;101430.69;;;8.97
55077;BMP280;40971;44.702;11.030;2023-01-30T15:55:21;101438.56;;;8.29
55077;BMP280;40971;44.702;11.030;2023-01-30T16:05:24;101419.16;;;7.83
55077;BMP280;40971;44.702;11.030;2023-01-30T16:15:40;101431.22;;;7.43
55077;BMP280;40971;44.702;11.030;2023-01-30T16:25:45;101430.09;;;7.17
55077;BMP280;40971;44.702;11.030;2023-01-30T16:35:46;101436.78;;;6.38
55077;BMP280;40971;44.702;11.030;2023-01-30T16:56:01;101467.09;;;5.58
55077;BMP280;40971;44.702;11.030;2023-01-30T17:06:08;101497.16;;;5.43
55077;BMP280;40971;44.702;11.030;2023-01-30T17:16:29;101479.00;;;5.61
55077;BMP280;40971;44.702;11.030;2023-01-30T17:26:31;101498.69;;;4.90
55077;BMP280;40971;44.702;11.030;2023-01-30T17:36:32;101505.69;;;4.73
55077;BMP280;40971;44.702;11.030;2023-01-30T17:56:41;101486.34;;;4.46
55077;BMP280;40971;44.702;11.030;2023-01-30T18:06:44;101517.84;;;3.20
55077;BMP280;40971;44.702;11.030;2023-01-30T18:16:47;101522.09;;;3.27
55077;BMP280;40971;44.702;11.030;2023-01-30T18:26:47;101524.84;;;2.51
55077;BMP280;40971;44.702;11.030;2023-01-30T18:36:48;101535.00;;;2.27
55077;BMP280;40971;44.702;11.030;2023-01-30T18:46:48;101525.66;;;2.52
55077;BMP280;40971;44.702;11.030;2023-01-30T18:56:49;101525.66;;;2.63
55077;BMP280;40971;44.702;11.030;2023-01-30T19:06:50;101523.13;;;2.31
55077;BMP280;40971;44.702;11.030;2023-01-30T19:16:50;101525.69;;;2.19
55077;BMP280;40971;44.702;11.030;2023-01-30T19:26:51;101528.22;;;2.44
55077;BMP280;40971;44.702;11.030;2023-01-30T19:36:51;101524.75;;;1.66
55077;BMP280;40971;44.702;11.030;2023-01-30T19:46:52;101542.63;;;1.91
55077;BMP280;40971;44.702;11.030;2023-01-30T19:56:52;101539.28;;;2.09
55077;BMP280;40971;44.702;11.030;2023-01-30T20:06:52;101579.91;;;1.78
55077;BMP280;40971;44.702;11.030;2023-01-30T20:16:53;101577.34;;;1.76
55077;BMP280;40971;44.702;11.030;2023-01-30T20:26:54;101585.84;;;1.68
55077;BMP280;40971;44.702;11.030;2023-01-30T20:36:54;101580.00;;;2.24
55077;BMP280;40971;44.702;11.030;2023-01-30T20:46:55;101583.41;;;2.44
55077;BMP280;40971;44.702;11.030;2023-01-30T20:56:55;101595.25;;;2.09
55077;BMP280;40971;44.702;11.030;2023-01-30T21:06:56;101613.09;;;2.19
55077;BMP280;40971;44.702;11.030;2023-01-30T21:16:56;101648.50;;;1.60
55077;BMP280;40971;44.702;11.030;2023-01-30T21:26:57;101673.19;;;1.80
55077;BMP280;40971;44.702;11.030;2023-01-30T21:36:57;101688.53;;;2.02
55077;BMP280;40971;44.702;11.030;2023-01-30T21:47:16;101697.81;;;1.86
55077;BMP280;40971;44.702;11.030;2023-01-30T21:57:17;101729.97;;;1.72
55077;BMP280;40971;44.702;11.030;2023-01-30T22:07:17;101756.25;;;1.71
55077;BMP280;40971;44.702;11.030;2023-01-30T22:17:17;101782.59;;;0.75
55077;BMP280;40971;44.702;11.030;2023-01-30T22:27:19;101790.56;;;1.12
55077;BMP280;40971;44.702;11.030;2023-01-30T22:37:20;101791.53;;;1.25
55077;BMP280;40971;44.702;11.030;2023-01-30T22:47:20;101809.28;;;1.20
55077;BMP280;40971;44.702;11.030;2023-01-30T22:57:20;101820.78;;;0.82
55077;BMP280;40971;44.702;11.030;2023-01-30T23:07:21;101839.22;;;0.66
55077;BMP280;40971;44.702;11.030;2023-01-30T23:17:21;101861.72;;;0.37
55077;BMP280;40971;44.702;11.030;2023-01-30T23:27:40;101866.75;;;1.05
55077;BMP280;40971;44.702;11.030;2023-01-30T23:37:41;101877.16;;;1.30
55077;BMP280;40971;44.702;11.030;2023-01-30T23:48:00;101890.44;;;1.02
55077;BMP280;40971;44.702;11.030;2023-01-30T23:58:00;101900.53;;;0.99
